createdAt,value
2023-01-25T00:00:50.683Z,15.43
2023-01-25T00:03:18.888Z,15.83
2023-01-25T00:05:46.939Z,15.87
2023-01-25T00:08:14.916Z,16.87
2023-01-25T00:10:46.105Z,16.10
2023-01-25T00:13:19.956Z,15.37
2023-01-25T00:15:50.737Z,15.57
2023-01-25T00:18:19.177Z,14.63
2023-01-25T00:20:47.285Z,16.67
2023-01-25T00:23:15.411Z,16.43
2023-01-25T00:25:43.818Z,17.17
2023-01-25T00:28:16.195Z,18.10
2023-01-25T00:30:44.180Z,17.53
2023-01-25T00:33:36.080Z,16.73
2023-01-25T00:36:24.134Z,17.07
2023-01-25T00:38:55.227Z,16.30
2023-01-25T00:41:23.181Z,16.70
2023-01-25T00:43:52.932Z,16.67
2023-01-25T00:46:21.287Z,16.03
2023-01-25T00:48:50.802Z,17.30
2023-01-25T00:51:18.785Z,17.23
2023-01-25T00:53:46.788Z,17.50
2023-01-25T00:56:14.869Z,16.93
2023-01-25T00:58:43.107Z,17.70
2023-01-25T01:01:11.313Z,17.00
2023-01-25T01:03:39.407Z,18.20
2023-01-25T01:06:10.956Z,16.47
2023-01-25T01:08:41.632Z,17.40
2023-01-25T01:11:11.850Z,19.07
2023-01-25T01:13:40.676Z,17.33
2023-01-25T01:16:11.876Z,18.63
2023-01-25T01:18:41.649Z,18.87
2023-01-25T01:21:12.039Z,19.63
2023-01-25T01:23:40.156Z,18.70
2023-01-25T01:26:12.208Z,19.67
2023-01-25T01:28:40.570Z,19.43
2023-01-25T01:31:11.576Z,19.93
2023-01-25T01:33:39.597Z,18.60
2023-01-25T01:36:14.333Z,19.70
2023-01-25T01:38:42.614Z,20.70
2023-01-25T01:41:11.632Z,20.23
2023-01-25T01:43:40.053Z,20.00
2023-01-25T01:46:13.174Z,19.53
2023-01-25T01:48:46.269Z,21.30
2023-01-25T01:51:20.461Z,20.87
2023-01-25T01:53:53.442Z,20.83
2023-01-25T01:56:28.354Z,20.17
2023-01-25T01:58:59.314Z,21.03
2023-01-25T02:01:27.912Z,20.30
2023-01-25T02:03:56.742Z,19.93
2023-01-25T02:06:33.822Z,20.57
2023-01-25T02:09:02.725Z,20.33
2023-01-25T02:11:31.923Z,18.87
2023-01-25T02:14:01.579Z,19.00
2023-01-25T02:16:30.122Z,20.03
2023-01-25T02:19:02.111Z,17.03
2023-01-25T02:21:36.590Z,16.73
2023-01-25T02:24:12.289Z,17.80
2023-01-25T02:26:42.051Z,15.37
2023-01-25T02:29:10.889Z,16.60
2023-01-25T02:31:39.083Z,17.23
2023-01-25T02:34:07.165Z,16.27
2023-01-25T02:36:36.553Z,16.90
2023-01-25T02:39:08.421Z,16.27
2023-01-25T02:41:38.845Z,15.43
2023-01-25T02:44:12.539Z,14.93
2023-01-25T02:46:41.793Z,15.77
2023-01-25T02:49:12.095Z,14.87
2023-01-25T02:51:41.887Z,15.13
2023-01-25T02:54:11.242Z,15.43
2023-01-25T02:56:40.746Z,14.67
2023-01-25T02:59:13.201Z,15.50
2023-01-25T03:01:43.078Z,14.73
2023-01-25T03:04:11.608Z,13.57
2023-01-25T03:06:40.289Z,14.50
2023-01-25T03:09:11.122Z,13.93
2023-01-25T03:11:39.160Z,14.70
2023-01-25T03:14:07.253Z,15.67
2023-01-25T03:16:36.725Z,15.97
2023-01-25T03:19:04.958Z,15.27
2023-01-25T03:21:33.001Z,15.63
2023-01-25T03:24:02.806Z,14.93
2023-01-25T03:26:31.095Z,15.17
2023-01-25T03:28:59.065Z,15.23
2023-01-25T03:31:27.134Z,14.63
2023-01-25T03:33:56.563Z,15.70
2023-01-25T03:36:24.647Z,15.80
2023-01-25T03:38:52.678Z,14.63
2023-01-25T03:41:20.668Z,15.10
2023-01-25T03:43:48.857Z,14.67
2023-01-25T03:46:16.864Z,14.77
2023-01-25T03:48:44.944Z,14.60
2023-01-25T03:51:14.297Z,15.63
2023-01-25T03:53:42.295Z,16.70
2023-01-25T03:56:17.488Z,15.73
2023-01-25T03:58:45.513Z,16.23
2023-01-25T04:01:13.790Z,16.40
2023-01-25T04:03:41.873Z,16.10
2023-01-25T04:06:10.002Z,15.87
2023-01-25T04:08:39.554Z,16.57
2023-01-25T04:11:08.763Z,16.17
2023-01-25T04:13:38.123Z,15.93
2023-01-25T04:16:07.387Z,15.40
2023-01-25T04:18:35.412Z,15.30
2023-01-25T04:21:03.461Z,16.03
2023-01-25T04:23:31.503Z,17.30
2023-01-25T04:26:02.278Z,16.13
2023-01-25T04:28:30.544Z,16.47
2023-01-25T04:30:59.827Z,16.40
2023-01-25T04:33:28.600Z,16.57
2023-01-25T04:35:56.704Z,15.83
2023-01-25T04:38:24.778Z,16.23
2023-01-25T04:40:53.654Z,17.23
2023-01-25T04:43:23.512Z,16.90
2023-01-25T04:45:51.582Z,16.97
2023-01-25T04:48:19.631Z,17.50
2023-01-25T04:50:47.985Z,18.10
2023-01-25T04:53:18.086Z,18.73
2023-01-25T04:55:47.975Z,16.97
2023-01-25T04:58:16.313Z,16.60
2023-01-25T05:00:45.712Z,16.77
2023-01-25T05:03:13.689Z,16.33
2023-01-25T05:05:47.228Z,15.97
2023-01-25T05:08:15.227Z,16.63
2023-01-25T05:10:43.197Z,16.27
2023-01-25T05:13:11.209Z,16.93
2023-01-25T05:15:39.166Z,16.27
2023-01-25T05:18:08.548Z,16.23
2023-01-25T05:20:36.541Z,17.43
2023-01-25T05:23:04.558Z,17.57
2023-01-25T05:25:49.988Z,17.20
2023-01-25T05:28:18.041Z,16.90
2023-01-25T05:30:46.104Z,15.77
2023-01-25T05:33:15.502Z,15.03
2023-01-25T05:35:43.485Z,16.20
2023-01-25T05:38:11.627Z,15.93
2023-01-25T05:40:39.603Z,15.73
2023-01-25T05:43:07.627Z,15.47
2023-01-25T05:45:35.612Z,16.00
2023-01-25T05:48:03.799Z,16.03
2023-01-25T05:50:33.165Z,16.20
2023-01-25T05:53:01.168Z,16.33
2023-01-25T05:55:29.154Z,16.33
2023-01-25T05:57:57.931Z,16.90
2023-01-25T06:00:25.971Z,16.00
2023-01-25T06:02:55.873Z,15.87
2023-01-25T06:05:23.969Z,15.07
2023-01-25T06:07:53.304Z,16.57
2023-01-25T06:10:21.304Z,16.57
2023-01-25T06:12:49.296Z,16.20
2023-01-25T06:15:17.349Z,16.50
2023-01-25T06:17:45.324Z,16.60
2023-01-25T06:20:14.058Z,16.50
2023-01-25T06:22:42.111Z,16.20
2023-01-25T06:25:12.024Z,16.80
2023-01-25T06:27:40.295Z,17.30
2023-01-25T06:30:09.659Z,16.57
2023-01-25T06:32:37.761Z,17.90
2023-01-25T06:35:06.663Z,16.57
2023-01-25T06:37:35.025Z,16.40
2023-01-25T06:40:03.233Z,16.93
2023-01-25T06:42:32.912Z,17.67
2023-01-25T06:45:00.866Z,15.97
2023-01-25T06:47:28.902Z,16.53
2023-01-25T06:49:57.029Z,16.63
2023-01-25T06:52:25.307Z,16.27
2023-01-25T06:54:53.523Z,15.63
2023-01-25T06:57:21.611Z,16.40
2023-01-25T06:59:50.964Z,16.23
2023-01-25T07:02:22.079Z,16.23
2023-01-25T07:04:50.284Z,16.10
2023-01-25T07:07:18.322Z,15.40
2023-01-25T07:09:46.343Z,15.77
2023-01-25T07:12:14.355Z,16.23
2023-01-25T07:14:42.426Z,14.93
2023-01-25T07:17:11.780Z,16.10
2023-01-25T07:19:39.777Z,14.60
2023-01-25T07:22:07.765Z,15.10
2023-01-25T07:24:35.746Z,15.57
2023-01-25T07:27:03.740Z,14.50
2023-01-25T07:29:31.875Z,15.30
2023-01-25T07:31:59.852Z,15.60
2023-01-25T07:34:29.360Z,16.50
2023-01-25T07:36:57.321Z,15.53
2023-01-25T07:39:25.450Z,15.67
2023-01-25T07:41:53.439Z,14.97
2023-01-25T07:44:21.451Z,15.33
2023-01-25T07:46:49.452Z,15.73
2023-01-25T07:49:17.623Z,15.43
2023-01-25T07:51:47.125Z,15.20
2023-01-25T07:54:15.362Z,15.93
2023-01-25T07:56:43.645Z,16.30
2023-01-25T07:59:12.088Z,16.73
2023-01-25T08:01:40.875Z,17.97
2023-01-25T08:04:09.795Z,17.70
2023-01-25T08:06:39.665Z,17.80
2023-01-25T08:09:12.089Z,17.23
2023-01-25T08:11:40.479Z,18.30
2023-01-25T08:14:09.128Z,18.07
2023-01-25T08:16:37.571Z,18.13
2023-01-25T08:19:05.809Z,18.57
2023-01-25T08:21:35.141Z,19.77
2023-01-25T08:24:05.089Z,18.97
2023-01-25T08:26:36.477Z,19.57
2023-01-25T08:29:05.270Z,19.67
2023-01-25T08:31:35.759Z,21.23
2023-01-25T08:34:04.843Z,20.20
2023-01-25T08:36:33.193Z,22.20
2023-01-25T08:39:02.830Z,23.10
2023-01-25T08:41:32.540Z,21.43
2023-01-25T08:44:01.987Z,21.60
2023-01-25T08:46:32.132Z,21.70
2023-01-25T08:49:01.861Z,22.63
2023-01-25T08:51:31.520Z,22.97
2023-01-25T08:54:03.767Z,23.47
2023-01-25T08:56:31.813Z,23.60
2023-01-25T08:59:01.274Z,22.87
2023-01-25T09:01:29.391Z,23.60
2023-01-25T09:03:57.467Z,23.97
2023-01-25T09:06:25.535Z,24.17
2023-01-25T09:08:53.570Z,23.27
2023-01-25T09:11:22.986Z,24.23
2023-01-25T09:13:51.735Z,24.97
2023-01-25T09:16:28.561Z,24.80
2023-01-25T09:18:58.639Z,24.40
2023-01-25T09:21:26.907Z,24.60
2023-01-25T09:24:11.271Z,25.10
2023-01-25T09:26:44.423Z,25.93
2023-01-25T09:29:16.847Z,24.27
2023-01-25T09:31:46.376Z,24.37
2023-01-25T09:34:16.275Z,24.17
2023-01-25T09:36:45.473Z,25.80
2023-01-25T09:39:14.665Z,25.80
2023-01-25T09:42:21.395Z,26.17
2023-01-25T09:45:18.583Z,26.17
2023-01-25T09:47:55.837Z,26.43
2023-01-25T09:50:35.776Z,26.93
2023-01-25T09:53:24.301Z,28.57
2023-01-25T09:55:55.577Z,28.20
2023-01-25T09:58:28.443Z,27.20
2023-01-25T10:01:36.966Z,28.00
2023-01-25T10:04:15.809Z,28.67
2023-01-25T10:06:55.259Z,28.60
2023-01-25T10:09:37.110Z,28.63
2023-01-25T10:12:13.713Z,28.70
2023-01-25T10:14:41.712Z,28.83
2023-01-25T10:17:15.690Z,29.83
2023-01-25T10:19:56.832Z,28.73
2023-01-25T10:22:29.991Z,29.37
2023-01-25T10:25:22.288Z,27.93
2023-01-25T10:28:14.710Z,28.83
2023-01-25T10:30:48.777Z,27.70
2023-01-25T10:33:20.643Z,29.60
2023-01-25T10:35:51.122Z,29.60
2023-01-25T10:38:26.149Z,30.23
2023-01-25T10:40:58.389Z,29.17
2023-01-25T10:43:26.868Z,29.23
2023-01-25T10:45:54.885Z,29.20
2023-01-25T10:48:27.008Z,28.30
2023-01-25T10:50:58.516Z,30.60
2023-01-25T10:53:33.590Z,29.47
2023-01-25T10:56:22.973Z,30.03
2023-01-25T10:58:54.399Z,29.17
2023-01-25T11:01:28.596Z,31.20
2023-01-25T11:03:56.920Z,30.03
2023-01-25T11:06:35.346Z,30.73
2023-01-25T11:09:23.943Z,30.93
2023-01-25T11:11:56.887Z,31.50
2023-01-25T11:14:27.289Z,31.23
2023-01-25T11:16:57.282Z,32.83
2023-01-25T11:19:33.084Z,33.17
2023-01-25T11:22:04.076Z,32.30
2023-01-25T11:24:34.493Z,33.17
2023-01-25T11:27:22.708Z,33.20
2023-01-25T11:30:11.237Z,32.90
2023-01-25T11:32:41.260Z,33.43
2023-01-25T11:35:15.123Z,34.63
2023-01-25T11:38:08.975Z,32.57
2023-01-25T11:40:42.932Z,32.93
2023-01-25T11:43:25.532Z,33.90
2023-01-25T11:46:06.488Z,32.07
2023-01-25T11:49:00.205Z,32.17
2023-01-25T11:51:34.598Z,31.50
2023-01-25T11:54:28.696Z,32.67
2023-01-25T11:57:00.844Z,33.50
2023-01-25T11:59:56.998Z,31.43
2023-01-25T12:02:51.588Z,30.07
2023-01-25T12:05:33.579Z,32.47
2023-01-25T12:08:17.557Z,32.80
2023-01-25T12:10:57.968Z,31.70
2023-01-25T12:13:36.577Z,31.90
2023-01-25T12:16:16.477Z,31.53
2023-01-25T12:19:06.787Z,31.13
2023-01-25T12:21:47.721Z,33.77
2023-01-25T12:24:33.279Z,31.97
2023-01-25T12:27:18.133Z,32.17
2023-01-25T12:29:50.596Z,33.70
2023-01-25T12:32:24.734Z,31.77
2023-01-25T12:35:04.978Z,32.47
2023-01-25T12:37:38.797Z,32.00
2023-01-25T12:40:13.666Z,30.90
2023-01-25T12:42:51.213Z,32.67
2023-01-25T12:45:23.428Z,33.03
2023-01-25T12:47:57.286Z,34.47
2023-01-25T12:50:33.237Z,33.27
2023-01-25T12:53:05.944Z,34.03
2023-01-25T12:55:34.927Z,32.43
2023-01-25T12:58:10.281Z,31.67
2023-01-25T13:00:48.977Z,34.03
2023-01-25T13:03:28.495Z,32.67
2023-01-25T13:06:05.777Z,34.70
2023-01-25T13:08:43.061Z,34.33
2023-01-25T13:11:17.055Z,34.47
2023-01-25T13:13:46.613Z,33.83
2023-01-25T13:16:38.206Z,34.77
2023-01-25T13:19:19.157Z,34.33
2023-01-25T13:21:49.918Z,32.10
2023-01-25T13:24:25.167Z,32.53
2023-01-25T13:27:05.646Z,32.50
2023-01-25T13:30:03.429Z,32.77
2023-01-25T13:33:03.452Z,33.53
2023-01-25T13:35:50.835Z,30.33
2023-01-25T13:38:29.671Z,30.70
2023-01-25T13:41:17.860Z,30.57
2023-01-25T13:43:49.180Z,29.53
2023-01-25T13:46:23.416Z,29.43
2023-01-25T13:49:00.045Z,27.77
2023-01-25T13:51:31.777Z,29.13
2023-01-25T13:54:00.865Z,28.40
2023-01-25T13:56:34.453Z,28.13
2023-01-25T13:59:03.432Z,28.10
2023-01-25T14:01:36.760Z,27.67
2023-01-25T14:04:06.289Z,28.87
2023-01-25T14:06:38.122Z,28.30
2023-01-25T14:09:15.516Z,28.10
2023-01-25T14:11:47.028Z,27.80
2023-01-25T14:14:21.149Z,30.10
2023-01-25T14:17:02.728Z,28.97
2023-01-25T14:19:32.345Z,29.20
2023-01-25T14:22:25.186Z,28.23
2023-01-25T14:25:12.398Z,27.53
2023-01-25T14:27:45.278Z,29.13
2023-01-25T14:30:22.734Z,28.83
2023-01-25T14:32:54.886Z,27.50
2023-01-25T14:35:55.164Z,31.33
2023-01-25T14:38:34.630Z,28.13
2023-01-25T14:41:12.352Z,28.90
2023-01-25T14:43:45.291Z,31.67
2023-01-25T14:46:20.956Z,32.07
2023-01-25T14:48:51.888Z,31.97
2023-01-25T14:51:27.306Z,33.03
2023-01-25T14:54:00.830Z,30.10
2023-01-25T14:56:36.867Z,31.23
2023-01-25T14:59:06.274Z,30.77
2023-01-25T15:01:39.255Z,28.20
2023-01-25T15:04:13.505Z,29.27
2023-01-25T15:06:47.151Z,29.83
2023-01-25T15:09:49.695Z,30.00
2023-01-25T15:12:32.915Z,30.80
2023-01-25T15:15:02.762Z,32.00
2023-01-25T15:17:43.012Z,32.70
2023-01-25T15:20:38.435Z,33.10
2023-01-25T15:23:33.501Z,31.53
2023-01-25T15:26:03.756Z,33.50
2023-01-25T15:28:34.440Z,33.17
2023-01-25T15:31:04.718Z,32.97
2023-01-25T15:33:35.528Z,33.00
2023-01-25T15:36:05.533Z,33.33
2023-01-25T15:38:33.524Z,34.20
2023-01-25T15:41:02.558Z,34.40
2023-01-25T15:43:30.669Z,33.20
2023-01-25T15:46:00.515Z,32.60
2023-01-25T15:48:32.017Z,35.27
2023-01-25T15:51:00.070Z,35.43
2023-01-25T15:53:29.434Z,36.77
2023-01-25T15:56:01.077Z,34.90
2023-01-25T15:58:32.472Z,34.07
2023-01-25T16:01:01.077Z,35.20
2023-01-25T16:03:29.952Z,34.93
2023-01-25T16:05:59.993Z,33.90
2023-01-25T16:08:29.995Z,32.80
2023-01-25T16:10:58.279Z,32.63
2023-01-25T16:13:26.289Z,33.33
2023-01-25T16:15:57.005Z,33.63
2023-01-25T16:18:25.004Z,31.10
2023-01-25T16:20:52.995Z,31.07
2023-01-25T16:23:21.005Z,29.40
2023-01-25T16:25:50.486Z,29.10
2023-01-25T16:28:18.967Z,29.57
2023-01-25T16:30:47.122Z,28.07
2023-01-25T16:33:15.200Z,27.93
2023-01-25T16:35:43.224Z,29.63
2023-01-25T16:38:12.882Z,28.40
2023-01-25T16:40:40.996Z,28.03
2023-01-25T16:43:10.355Z,29.40
2023-01-25T16:45:39.796Z,27.37
2023-01-25T16:48:08.231Z,28.20
2023-01-25T16:50:36.490Z,24.83
2023-01-25T16:53:04.501Z,26.73
2023-01-25T16:55:32.638Z,25.60
2023-01-25T16:58:00.613Z,25.77
2023-01-25T17:00:29.990Z,25.20
2023-01-25T17:02:59.889Z,23.73
2023-01-25T17:05:33.566Z,25.07
2023-01-25T17:08:01.625Z,24.23
2023-01-25T17:10:33.059Z,24.43
2023-01-25T17:13:01.185Z,24.20
2023-01-25T17:15:30.944Z,24.17
2023-01-25T17:17:58.956Z,25.27
2023-01-25T17:20:27.009Z,23.17
2023-01-25T17:22:54.991Z,24.40
2023-01-25T17:25:23.143Z,26.17
2023-01-25T17:27:51.150Z,24.93
2023-01-25T17:30:19.714Z,24.00
2023-01-25T17:32:49.211Z,23.97
2023-01-25T17:35:17.287Z,24.93
2023-01-25T17:37:45.305Z,23.77
2023-01-25T17:40:13.832Z,24.63
2023-01-25T17:42:41.832Z,27.33
2023-01-25T17:45:10.637Z,24.43
2023-01-25T17:47:38.972Z,23.80
2023-01-25T17:50:10.387Z,25.03
2023-01-25T17:52:38.611Z,23.97
2023-01-25T17:55:07.687Z,23.87
2023-01-25T17:57:37.221Z,25.83
2023-01-25T18:00:07.066Z,26.23
2023-01-25T18:02:35.174Z,25.90
2023-01-25T18:05:03.183Z,25.93
2023-01-25T18:07:32.560Z,23.23
2023-01-25T18:10:00.571Z,24.60
2023-01-25T18:12:28.594Z,25.17
2023-01-25T18:14:56.588Z,25.47
2023-01-25T18:17:24.617Z,24.50
2023-01-25T18:19:52.927Z,24.27
2023-01-25T18:22:21.019Z,23.57
2023-01-25T18:24:51.876Z,24.77
2023-01-25T18:27:22.052Z,25.83
2023-01-25T18:29:56.500Z,25.33
2023-01-25T18:32:24.578Z,24.53
2023-01-25T18:34:52.617Z,25.97
2023-01-25T18:37:25.783Z,24.77
2023-01-25T18:39:56.864Z,26.50
2023-01-25T18:42:27.241Z,25.20
2023-01-25T18:44:55.460Z,27.20
2023-01-25T18:47:24.444Z,23.63
2023-01-25T18:49:53.457Z,24.93
2023-01-25T18:52:23.393Z,26.53
2023-01-25T18:54:51.680Z,26.07
2023-01-25T18:57:21.522Z,25.80
2023-01-25T18:59:49.679Z,26.67
2023-01-25T19:02:18.836Z,25.47
2023-01-25T19:04:46.849Z,26.13
2023-01-25T19:07:14.883Z,25.37
2023-01-25T19:09:43.751Z,26.07
2023-01-25T19:12:12.051Z,25.47
2023-01-25T19:14:41.451Z,27.27
2023-01-25T19:17:09.505Z,26.73
2023-01-25T19:19:37.547Z,27.70
2023-01-25T19:22:05.882Z,28.67
2023-01-25T19:24:33.858Z,27.43
2023-01-25T19:27:01.893Z,27.47
2023-01-25T19:29:29.961Z,26.23
2023-01-25T19:31:59.327Z,27.57
2023-01-25T19:34:27.414Z,26.97
2023-01-25T19:36:55.821Z,26.77
2023-01-25T19:39:23.875Z,27.03
2023-01-25T19:41:53.116Z,27.77
2023-01-25T19:44:21.528Z,31.20
2023-01-25T19:46:49.780Z,29.13
2023-01-25T19:49:19.335Z,30.03
2023-01-25T19:51:52.911Z,29.57
2023-01-25T19:54:21.851Z,31.03
2023-01-25T19:56:50.839Z,29.33
2023-01-25T19:59:20.832Z,31.60
2023-01-25T20:01:48.930Z,31.83
2023-01-25T20:04:20.741Z,30.87
2023-01-25T20:06:49.803Z,31.83
2023-01-25T20:09:18.782Z,31.53
2023-01-25T20:11:47.321Z,32.57
2023-01-25T20:14:15.924Z,31.80
2023-01-25T20:16:44.221Z,33.57
2023-01-25T20:19:13.040Z,33.33
2023-01-25T20:21:42.406Z,33.70
2023-01-25T20:24:11.253Z,31.37
2023-01-25T20:26:42.884Z,33.53
2023-01-25T20:29:12.385Z,31.23
2023-01-25T20:31:42.020Z,33.17
2023-01-25T20:34:13.591Z,33.13
2023-01-25T20:36:43.713Z,33.80
2023-01-25T20:39:14.503Z,34.40
2023-01-25T20:41:43.029Z,33.40
2023-01-25T20:44:13.650Z,35.03
2023-01-25T20:46:43.009Z,31.87
2023-01-25T20:49:14.500Z,34.73
2023-01-25T20:51:44.167Z,35.03
2023-01-25T20:54:12.635Z,35.70
2023-01-25T20:56:40.807Z,35.80
2023-01-25T20:59:08.840Z,38.13
2023-01-25T21:01:37.670Z,45.40
2023-01-25T21:04:07.932Z,42.07
2023-01-25T21:06:36.109Z,38.60
2023-01-25T21:09:06.576Z,35.17
2023-01-25T21:11:34.677Z,34.33
2023-01-25T21:14:02.705Z,34.17
2023-01-25T21:16:30.817Z,33.57
2023-01-25T21:19:00.211Z,32.70
2023-01-25T21:21:30.160Z,32.23
2023-01-25T21:24:00.036Z,32.53
2023-01-25T21:26:30.921Z,32.10
2023-01-25T21:29:00.720Z,33.17
2023-01-25T21:31:30.830Z,32.77
2023-01-25T21:33:59.179Z,33.73
2023-01-25T21:36:27.731Z,33.57
2023-01-25T21:38:56.775Z,33.13
2023-01-25T21:41:26.422Z,32.03
2023-01-25T21:44:14.912Z,33.23
2023-01-25T21:46:49.251Z,33.87
2023-01-25T21:49:41.462Z,31.63
2023-01-25T21:52:09.544Z,32.37
2023-01-25T21:54:38.726Z,32.10
2023-01-25T21:57:09.766Z,33.03
2023-01-25T21:59:40.786Z,32.03
2023-01-25T22:02:15.713Z,33.43
2023-01-25T22:04:43.766Z,31.83
2023-01-25T22:07:12.683Z,33.43
2023-01-25T22:09:40.689Z,30.47
2023-01-25T22:12:08.792Z,31.17
2023-01-25T22:14:38.135Z,30.37
2023-01-25T22:17:06.129Z,30.20
2023-01-25T22:19:34.211Z,30.07
2023-01-25T22:22:02.251Z,29.73
2023-01-25T22:24:30.262Z,31.03
2023-01-25T22:27:05.483Z,29.47
2023-01-25T22:29:34.133Z,30.97
2023-01-25T22:32:04.124Z,30.97
2023-01-25T22:34:32.103Z,31.47
2023-01-25T22:37:00.140Z,30.43
2023-01-25T22:39:28.139Z,30.73
2023-01-25T22:41:56.508Z,31.10
2023-01-25T22:44:24.596Z,34.07
2023-01-25T22:46:53.807Z,33.20
2023-01-25T22:49:23.270Z,33.53
2023-01-25T22:51:51.263Z,34.17
2023-01-25T22:54:19.455Z,35.47
2023-01-25T22:56:47.494Z,37.90
2023-01-25T22:59:18.831Z,37.10
2023-01-25T23:01:47.378Z,36.80
2023-01-25T23:04:15.418Z,36.43
2023-01-25T23:06:44.855Z,35.40
2023-01-25T23:09:12.928Z,35.37
2023-01-25T23:11:40.902Z,35.97
2023-01-25T23:14:29.478Z,39.53
2023-01-25T23:17:17.920Z,37.23
2023-01-25T23:19:54.630Z,37.57
2023-01-25T23:22:25.165Z,36.27
2023-01-25T23:24:53.124Z,36.87
2023-01-25T23:27:21.088Z,37.07
2023-01-25T23:29:51.683Z,34.83
2023-01-25T23:32:19.665Z,36.60
2023-01-25T23:34:53.128Z,37.00
2023-01-25T23:37:22.585Z,36.20
2023-01-25T23:39:52.040Z,36.13
2023-01-25T23:42:20.059Z,34.37
2023-01-25T23:44:48.053Z,34.90
2023-01-25T23:47:16.640Z,35.07
2023-01-25T23:49:44.744Z,33.03
2023-01-25T23:52:12.755Z,34.03
2023-01-25T23:54:40.741Z,32.67
2023-01-25T23:57:10.132Z,32.90
2023-01-25T23:59:38.493Z,32.87
